Time,TemperatureF,DewpointF,PressureIn,WindDirection,WindDirectionDegrees,WindSpeedMPH,WindSpeedGustMPH,Humidity,HourlyPrecipIn,Conditions,Clouds,dailyrainin,SoftwareType,DateUTC
2013-10-08 00:00:00,44.5,42.0,30.12,West,259,0.0,0.0,91,0.00,,---,0.00,VWS V14.01,2013-10-08 04:00:00,
2013-10-08 00:01:00,44.5,42.0,30.12,West,259,0.0,0.0,91,0.00,,---,0.00,VWS V14.01,2013-10-08 04:01:00,
2013-10-08 00:02:00,44.5,41.8,30.12,West,259,0.0,0.0,90,0.00,,---,0.00,VWS V14.01,2013-10-08 04:02:00,
2013-10-08 00:07:00,44.4,41.7,30.12,West,259,0.0,0.0,90,0.00,,---,0.00,VWS V14.01,2013-10-08 04:07:00,
2013-10-08 00:12:00,44.3,41.6,30.12,West,259,0.0,0.0,90,0.00,,---,0.00,VWS V14.01,2013-10-08 04:12:00,
2013-10-08 00:17:00,44.3,41.8,30.12,West,259,0.0,0.0,91,0.00,,---,0.00,VWS V14.01,2013-10-08 04:17:00,
2013-10-08 00:22:00,44.2,41.7,30.13,West,259,0.0,0.0,91,0.00,,---,0.00,VWS V14.01,2013-10-08 04:22:00,
2013-10-08 00:27:00,44.0,41.5,30.12,West,259,0.0,0.0,91,0.00,,---,0.00,VWS V14.01,2013-10-08 04:27:00,
2013-10-08 00:32:00,44.0,41.5,30.13,West,259,0.0,0.0,91,0.00,,---,0.00,VWS V14.01,2013-10-08 04:32:00,
2013-10-08 00:37:00,43.9,41.5,30.13,West,259,0.0,0.0,91,0.00,,---,0.00,VWS V14.01,2013-10-08 04:37:00,
2013-10-08 00:42:00,43.7,41.2,30.13,West,259,0.0,0.0,91,0.00,,---,0.00,VWS V14.01,2013-10-08 04:42:00,
2013-10-08 00:47:00,43.6,41.2,30.13,West,259,0.0,0.0,91,0.00,,---,0.00,VWS V14.01,2013-10-08 04:47:00,
2013-10-08 00:52:00,43.5,41.0,30.14,West,259,0.0,0.0,91,0.00,,---,0.00,VWS V14.01,2013-10-08 04:52:00,
2013-10-08 00:57:00,43.5,41.0,30.13,West,259,0.0,0.0,91,0.00,,---,0.00,VWS V14.01,2013-10-08 04:57:00,
2013-10-08 01:02:00,43.3,40.8,30.13,West,259,0.0,0.0,91,0.00,,---,0.00,VWS V14.01,2013-10-08 05:02:00,
2013-10-08 01:07:00,43.3,40.8,30.13,West,259,0.0,0.0,91,0.00,,---,0.00,VWS V14.01,2013-10-08 05:07:00,
2013-10-08 01:12:00,43.2,40.8,30.13,West,259,0.0,0.0,91,0.00,,---,0.00,VWS V14.01,2013-10-08 05:12:00,
2013-10-08 01:17:00,43.1,40.7,30.13,West,259,0.0,0.0,91,0.00,,---,0.00,VWS V14.01,2013-10-08 05:17:00,
2013-10-08 01:22:00,43.0,40.6,30.13,West,259,0.0,0.0,91,0.00,,---,0.00,VWS V14.01,2013-10-08 05:22:00,
2013-10-08 03:31:00,41.0,38.9,30.16,West,259,0.0,0.0,92,0.00,,---,0.00,VWS V14.01,2013-10-08 07:31:00,
2013-10-08 03:36:00,40.9,38.8,30.16,West,259,0.0,0.0,92,0.00,,---,0.00,VWS V14.01,2013-10-08 07:36:00,
2013-10-08 03:41:00,40.9,38.8,30.16,West,259,0.0,0.0,92,0.00,,---,0.00,VWS V14.01,2013-10-08 07:41:00,
2013-10-08 03:46:00,40.8,38.7,30.17,West,259,0.0,0.0,92,0.00,,---,0.00,VWS V14.01,2013-10-08 07:46:00,
2013-10-08 03:51:00,40.8,38.7,30.17,West,259,0.0,0.0,92,0.00,,---,0.00,VWS V14.01,2013-10-08 07:51:00,
2013-10-08 03:56:00,40.7,38.6,30.17,West,259,0.0,0.0,92,0.00,,---,0.00,VWS V14.01,2013-10-08 07:56:00,
2013-10-08 04:01:00,40.7,38.6,30.17,West,259,0.0,0.0,92,0.00,,---,0.00,VWS V14.01,2013-10-08 08:01:00,
2013-10-08 04:06:00,40.6,38.5,30.17,West,259,0.0,0.0,92,0.00,,---,0.00,VWS V14.01,2013-10-08 08:06:00,
2013-10-08 04:11:00,40.5,38.4,30.17,West,259,0.0,0.0,92,0.00,,---,0.00,VWS V14.01,2013-10-08 08:11:00,
2013-10-08 04:16:00,40.4,38.3,30.17,West,259,0.0,0.0,92,0.00,,---,0.00,VWS V14.01,2013-10-08 08:16:00,
2013-10-08 04:21:00,40.4,38.3,30.17,West,259,0.0,0.0,92,0.00,,---,0.00,VWS V14.01,2013-10-08 08:21:00,
2013-10-08 04:26:00,40.3,38.2,30.17,West,259,0.0,0.0,92,0.00,,---,0.00,VWS V14.01,2013-10-08 08:26:00,
2013-10-08 04:31:00,40.3,38.2,30.17,West,259,0.0,0.0,92,0.00,,---,0.00,VWS V14.01,2013-10-08 08:31:00,
2013-10-08 04:36:00,40.2,38.1,30.17,West,259,0.0,0.0,92,0.00,,---,0.00,VWS V14.01,2013-10-08 08:36:00,
2013-10-08 04:41:00,40.1,38.0,30.18,West,259,0.0,0.0,92,0.00,,---,0.00,VWS V14.01,2013-10-08 08:41:00,
2013-10-08 04:46:00,40.0,37.9,30.18,West,259,0.0,0.0,92,0.00,,---,0.00,VWS V14.01,2013-10-08 08:46:00,
2013-10-08 04:51:00,40.0,38.1,30.18,West,259,0.0,0.0,93,0.00,,---,0.00,VWS V14.01,2013-10-08 08:51:00,
2013-10-08 04:56:00,39.9,38.0,30.18,West,259,0.0,0.0,93,0.00,,---,0.00,VWS V14.01,2013-10-08 08:56:00,
2013-10-08 05:01:00,39.8,38.0,30.18,West,259,0.0,0.0,93,0.00,,---,0.00,VWS V14.01,2013-10-08 09:01:00,
2013-10-08 05:06:00,39.8,38.0,30.18,West,259,0.0,0.0,93,0.00,,---,0.00,VWS V14.01,2013-10-08 09:06:00,
2013-10-08 05:11:00,39.7,37.8,30.19,West,259,0.0,0.0,93,0.00,,---,0.00,VWS V14.01,2013-10-08 09:11:00,
2013-10-08 05:16:00,39.6,37.5,30.19,West,259,0.0,0.0,92,0.00,,---,0.00,VWS V14.01,2013-10-08 09:16:00,
2013-10-08 05:21:00,39.6,37.8,30.19,West,259,0.0,0.0,93,0.00,,---,0.00,VWS V14.01,2013-10-08 09:21:00,
2013-10-08 05:26:00,39.5,37.7,30.20,West,259,0.0,0.0,93,0.00,,---,0.00,VWS V14.01,2013-10-08 09:26:00,
2013-10-08 05:31:00,39.4,37.5,30.20,West,259,0.0,0.0,93,0.00,,---,0.00,VWS V14.01,2013-10-08 09:31:00,
2013-10-08 05:36:00,39.4,37.5,30.20,West,259,0.0,0.0,93,0.00,,---,0.00,VWS V14.01,2013-10-08 09:36:00,
2013-10-08 05:41:00,39.3,37.5,30.20,West,259,0.0,0.0,93,0.00,,---,0.00,VWS V14.01,2013-10-08 09:41:00,
2013-10-08 05:46:00,39.3,37.5,30.20,West,259,0.0,0.0,93,0.00,,---,0.00,VWS V14.01,2013-10-08 09:46:00,
2013-10-08 05:51:00,39.2,37.3,30.20,West,259,0.0,0.0,93,0.00,,---,0.00,VWS V14.01,2013-10-08 09:51:00,
2013-10-08 05:56:00,39.2,37.3,30.21,West,259,0.0,0.0,93,0.00,,---,0.00,VWS V14.01,2013-10-08 09:56:00,
2013-10-08 06:01:00,39.2,37.3,30.20,West,259,0.0,0.0,93,0.00,,---,0.00,VWS V14.01,2013-10-08 10:01:00,
2013-10-08 06:06:00,39.1,37.2,30.21,West,259,0.0,0.0,93,0.00,,---,0.00,VWS V14.01,2013-10-08 10:06:00,
2013-10-08 06:11:00,39.1,37.2,30.20,West,259,0.0,0.0,93,0.00,,---,0.00,VWS V14.01,2013-10-08 10:11:00,
2013-10-08 06:16:00,39.0,37.2,30.21,West,259,0.0,0.0,93,0.00,,---,0.00,VWS V14.01,2013-10-08 10:16:00,
2013-10-08 06:21:00,38.9,37.0,30.21,West,259,0.0,0.0,93,0.00,,---,0.00,VWS V14.01,2013-10-08 10:21:00,
2013-10-08 06:26:00,38.9,37.0,30.22,West,259,0.0,0.0,93,0.00,,---,0.00,VWS V14.01,2013-10-08 10:26:00,
2013-10-08 06:31:00,38.8,37.0,30.22,West,259,0.0,0.0,93,0.00,,---,0.00,VWS V14.01,2013-10-08 10:31:00,
2013-10-08 06:36:00,38.7,36.8,30.23,West,259,0.0,0.0,93,0.00,,---,0.00,VWS V14.01,2013-10-08 10:36:00,
2013-10-08 06:41:00,38.7,36.8,30.23,West,259,0.0,0.0,93,0.00,,---,0.00,VWS V14.01,2013-10-08 10:41:00,
2013-10-08 06:46:00,38.6,36.8,30.23,West,259,0.0,0.0,93,0.00,,---,0.00,VWS V14.01,2013-10-08 10:46:00,
2013-10-08 06:51:00,38.5,36.7,30.23,West,259,0.0,0.0,93,0.00,,---,0.00,VWS V14.01,2013-10-08 10:51:00,
2013-10-08 06:56:00,38.4,36.6,30.23,West,259,0.0,0.0,93,0.00,,---,0.00,VWS V14.01,2013-10-08 10:56:00,
2013-10-08 07:01:00,38.3,36.5,30.24,West,259,0.0,0.0,93,0.00,,---,0.00,VWS V14.01,2013-10-08 11:01:00,
2013-10-08 07:06:00,38.3,36.5,30.24,West,259,0.0,0.0,93,0.00,,---,0.00,VWS V14.01,2013-10-08 11:06:00,
2013-10-08 07:11:00,38.2,36.4,30.24,West,259,0.0,0.0,93,0.00,,---,0.00,VWS V14.01,2013-10-08 11:11:00,
2013-10-08 07:16:00,38.2,36.4,30.25,West,259,0.0,0.0,93,0.00,,---,0.00,VWS V14.01,2013-10-08 11:16:00,
2013-10-08 07:21:00,38.1,36.3,30.25,West,259,0.0,0.0,93,0.00,,---,0.00,VWS V14.01,2013-10-08 11:21:00,
2013-10-08 07:26:00,38.0,36.2,30.25,West,259,0.0,0.0,93,0.00,,---,0.00,VWS V14.01,2013-10-08 11:26:00,
2013-10-08 07:31:00,38.0,36.2,30.26,West,259,0.0,0.0,93,0.00,,---,0.00,VWS V14.01,2013-10-08 11:31:00,
2013-10-08 07:36:00,38.0,36.4,30.26,West,259,0.0,0.0,94,0.00,,---,0.00,VWS V14.01,2013-10-08 11:36:00,
2013-10-08 07:41:00,37.9,36.3,30.26,West,259,0.0,0.0,94,0.00,,---,0.00,VWS V14.01,2013-10-08 11:41:00,
2013-10-08 07:46:00,37.9,36.3,30.26,West,259,0.0,0.0,94,0.00,,---,0.00,VWS V14.01,2013-10-08 11:46:00,
2013-10-08 07:51:00,37.9,36.3,30.27,West,259,0.0,0.0,94,0.00,,---,0.00,VWS V14.01,2013-10-08 11:51:00,
2013-10-08 07:56:00,37.8,36.2,30.27,West,259,0.0,0.0,94,0.00,,---,0.00,VWS V14.01,2013-10-08 11:56:00,
2013-10-08 08:01:00,37.9,36.3,30.28,West,259,0.0,0.0,94,0.00,,---,0.00,VWS V14.01,2013-10-08 12:01:00,
2013-10-08 08:06:00,37.9,36.3,30.28,West,259,0.0,0.0,94,0.00,,---,0.00,VWS V14.01,2013-10-08 12:06:00,
2013-10-08 08:11:00,38.0,36.4,30.28,West,259,0.0,0.0,94,0.00,,---,0.00,VWS V14.01,2013-10-08 12:11:00,
2013-10-08 08:16:00,38.2,36.6,30.28,West,259,0.0,0.0,94,0.00,,---,0.00,VWS V14.01,2013-10-08 12:16:00,
2013-10-08 08:21:00,38.5,37.2,30.28,West,259,0.0,0.0,95,0.00,,---,0.00,VWS V14.01,2013-10-08 12:21:00,
2013-10-08 08:26:00,38.8,37.5,30.28,West,259,0.0,0.0,95,0.00,,---,0.00,VWS V14.01,2013-10-08 12:26:00,
2013-10-08 08:31:00,39.0,37.7,30.29,West,259,0.0,0.0,95,0.00,,---,0.00,VWS V14.01,2013-10-08 12:31:00,
2013-10-08 08:36:00,39.5,38.2,30.29,West,259,0.0,0.0,95,0.00,,---,0.00,VWS V14.01,2013-10-08 12:36:00,
2013-10-08 08:41:00,40.1,39.0,30.29,West,259,0.0,0.0,96,0.00,,---,0.00,VWS V14.01,2013-10-08 12:41:00,
2013-10-08 08:46:00,40.6,39.5,30.29,West,259,0.0,0.0,96,0.00,,---,0.00,VWS V14.01,2013-10-08 12:46:00,
2013-10-08 08:51:00,41.2,40.2,30.29,West,259,0.0,0.0,96,0.00,,---,0.00,VWS V14.01,2013-10-08 12:51:00,
2013-10-08 08:56:00,41.6,40.5,30.29,West,259,0.0,0.0,96,0.00,,---,0.00,VWS V14.01,2013-10-08 12:56:00,
2013-10-08 09:01:00,42.2,41.1,30.30,West,259,0.0,0.0,96,0.00,,---,0.00,VWS V14.01,2013-10-08 13:01:00,
2013-10-08 09:06:00,43.2,42.4,30.30,South,182,0.0,0.0,97,0.00,,---,0.00,VWS V14.01,2013-10-08 13:06:00,
2013-10-08 09:11:00,44.1,43.3,30.30,SW,234,0.0,0.0,97,0.00,,---,0.00,VWS V14.01,2013-10-08 13:11:00,
2013-10-08 09:16:00,45.1,44.3,30.30,SW,234,0.0,0.0,97,0.00,,---,0.00,VWS V14.01,2013-10-08 13:16:00,
2013-10-08 09:21:00,46.2,45.4,30.30,SW,234,0.0,0.0,97,0.00,,---,0.00,VWS V14.01,2013-10-08 13:21:00,
2013-10-08 09:26:00,47.4,46.6,30.30,SW,234,0.0,0.0,97,0.00,,---,0.00,VWS V14.01,2013-10-08 13:26:00,
2013-10-08 09:31:00,48.5,48.0,30.30,SW,234,0.0,0.0,98,0.00,,---,0.00,VWS V14.01,2013-10-08 13:31:00,
2013-10-08 09:36:00,49.2,48.7,30.30,SW,234,0.0,0.0,98,0.00,,---,0.00,VWS V14.01,2013-10-08 13:36:00,
2013-10-08 09:41:00,49.8,49.0,30.30,SW,234,0.0,0.0,97,0.00,,---,0.00,VWS V14.01,2013-10-08 13:41:00,
2013-10-08 09:46:00,50.4,49.6,30.30,SW,234,0.0,0.0,97,0.00,,---,0.00,VWS V14.01,2013-10-08 13:46:00,
2013-10-08 09:51:00,51.3,50.5,30.30,SW,234,0.0,0.0,97,0.00,,---,0.00,VWS V14.01,2013-10-08 13:51:00,
2013-10-08 09:56:00,52.0,51.2,30.30,SW,234,0.0,0.0,97,0.00,,---,0.00,VWS V14.01,2013-10-08 13:56:00,
2013-10-08 10:01:00,52.5,51.7,30.30,SW,224,0.0,0.0,97,0.00,,---,0.00,VWS V14.01,2013-10-08 14:01:00,
2013-10-08 10:06:00,52.9,52.1,30.30,East,87,0.0,1.0,97,0.00,,---,0.00,VWS V14.01,2013-10-08 14:06:00,
2013-10-08 10:11:00,53.3,52.5,30.30,ESE,105,0.0,2.0,97,0.00,,---,0.00,VWS V14.01,2013-10-08 14:11:00,
2013-10-08 10:16:00,53.9,53.1,30.30,ENE,59,0.0,2.0,97,0.00,,---,0.00,VWS V14.01,2013-10-08 14:16:00,
2013-10-08 10:21:00,54.2,53.4,30.30,ENE,75,0.0,0.0,97,0.00,,---,0.00,VWS V14.01,2013-10-08 14:21:00,
2013-10-08 10:26:00,54.5,53.4,30.30,ENE,69,0.0,1.0,96,0.00,,---,0.00,VWS V14.01,2013-10-08 14:26:00,
2013-10-08 10:31:00,54.9,53.5,30.30,ENE,75,0.0,2.0,95,0.00,,---,0.00,VWS V14.01,2013-10-08 14:31:00,
2013-10-08 10:36:00,55.6,54.2,30.30,ENE,75,0.0,1.0,95,0.00,,---,0.00,VWS V14.01,2013-10-08 14:36:00,
2013-10-08 10:41:00,56.3,54.6,30.30,ESE,103,0.0,1.0,94,0.00,,---,0.00,VWS V14.01,2013-10-08 14:41:00,
2013-10-08 10:46:00,57.0,54.7,30.30,East,101,0.0,1.0,92,0.00,,---,0.00,VWS V14.01,2013-10-08 14:46:00,
2013-10-08 10:51:00,57.6,54.7,30.31,ESE,105,0.0,2.0,90,0.00,,---,0.00,VWS V14.01,2013-10-08 14:51:00,
2013-10-08 10:56:00,58.3,54.5,30.31,East,88,0.0,1.0,87,0.00,,---,0.00,VWS V14.01,2013-10-08 14:56:00,
2013-10-08 11:01:00,59.0,54.5,30.31,NE,38,2.0,2.0,85,0.00,,---,0.00,VWS V14.01,2013-10-08 15:01:00,
2013-10-08 11:06:00,59.6,54.4,30.31,ESE,114,2.0,2.0,83,0.00,,---,0.00,VWS V14.01,2013-10-08 15:06:00,
2013-10-08 11:11:00,60.2,54.0,30.31,NE,46,0.0,2.0,80,0.00,,---,0.00,VWS V14.01,2013-10-08 15:11:00,
2013-10-08 11:16:00,60.8,53.9,30.31,East,96,0.0,0.0,78,0.00,,---,0.00,VWS V14.01,2013-10-08 15:16:00,
2013-10-08 11:21:00,61.5,54.6,30.31,ESE,104,0.0,2.0,78,0.00,,---,0.00,VWS V14.01,2013-10-08 15:21:00,
2013-10-08 11:26:00,62.0,54.0,30.31,ESE,107,1.0,4.0,75,0.00,,---,0.00,VWS V14.01,2013-10-08 15:26:00,
2013-10-08 11:31:00,62.4,54.0,30.31,East,95,2.0,3.0,74,0.00,,---,0.00,VWS V14.01,2013-10-08 15:31:00,
2013-10-08 11:36:00,63.0,54.2,30.31,East,87,0.0,3.0,73,0.00,,---,0.00,VWS V14.01,2013-10-08 15:36:00,
2013-10-08 11:41:00,63.4,54.2,30.31,East,84,0.0,2.0,72,0.00,,---,0.00,VWS V14.01,2013-10-08 15:41:00,
2013-10-08 11:46:00,63.6,53.3,30.31,East,94,3.0,5.0,69,0.00,,---,0.00,VWS V14.01,2013-10-08 15:46:00,
2013-10-08 11:51:00,63.6,53.7,30.31,East,88,0.0,0.0,70,0.00,,---,0.00,VWS V14.01,2013-10-08 15:51:00,
2013-10-08 11:56:00,63.7,53.3,30.31,North,355,0.0,4.0,69,0.00,,---,0.00,VWS V14.01,2013-10-08 15:56:00,
2013-10-08 12:01:00,63.8,53.5,30.31,NNW,329,0.0,3.0,69,0.00,,---,0.00,VWS V14.01,2013-10-08 16:01:00,
2013-10-08 12:06:00,63.9,53.9,30.31,NW,319,0.0,2.0,70,0.00,,---,0.00,VWS V14.01,2013-10-08 16:06:00,
2013-10-08 12:11:00,64.0,54.0,30.31,East,92,1.0,4.0,70,0.00,,---,0.00,VWS V14.01,2013-10-08 16:11:00,
2013-10-08 12:16:00,64.0,52.4,30.31,ENE,69,1.0,9.0,66,0.00,,---,0.00,VWS V14.01,2013-10-08 16:16:00,
2013-10-08 12:21:00,64.2,52.6,30.31,ENE,61,0.0,2.0,66,0.00,,---,0.00,VWS V14.01,2013-10-08 16:21:00,
2013-10-08 12:26:00,64.6,52.6,30.31,East,88,7.0,7.0,65,0.00,,---,0.00,VWS V14.01,2013-10-08 16:26:00,
2013-10-08 12:31:00,64.8,51.9,30.31,ENE,62,1.0,5.0,63,0.00,,---,0.00,VWS V14.01,2013-10-08 16:31:00,
2013-10-08 12:36:00,64.7,51.8,30.31,East,101,1.0,4.0,63,0.00,,---,0.00,VWS V14.01,2013-10-08 16:36:00,
2013-10-08 12:41:00,64.6,51.7,30.31,ESE,113,1.0,3.0,63,0.00,,---,0.00,VWS V14.01,2013-10-08 16:41:00,
2013-10-08 12:46:00,64.4,51.5,30.31,East,99,0.0,2.0,63,0.00,,---,0.00,VWS V14.01,2013-10-08 16:46:00,
2013-10-08 12:51:00,64.6,52.6,30.30,East,86,1.0,1.0,65,0.00,,---,0.00,VWS V14.01,2013-10-08 16:51:00,
2013-10-08 12:56:00,64.8,52.8,30.30,East,90,0.0,5.0,65,0.00,,---,0.00,VWS V14.01,2013-10-08 16:56:00,
2013-10-08 13:01:00,65.3,52.4,30.30,ENE,58,3.0,5.0,63,0.00,,---,0.00,VWS V14.01,2013-10-08 17:01:00,
2013-10-08 13:06:00,65.9,53.4,30.29,SSE,161,1.0,4.0,64,0.00,,---,0.00,VWS V14.01,2013-10-08 17:06:00,
2013-10-08 13:11:00,66.6,53.2,30.29,East,99,2.0,7.0,62,0.00,,---,0.00,VWS V14.01,2013-10-08 17:11:00,
2013-10-08 13:16:00,66.8,52.5,30.29,NE,46,0.0,4.0,60,0.00,,---,0.00,VWS V14.01,2013-10-08 17:16:00,
2013-10-08 13:21:00,66.9,53.0,30.29,ENE,69,2.0,6.0,61,0.00,,---,0.00,VWS V14.01,2013-10-08 17:21:00,
2013-10-08 13:26:00,67.3,53.4,30.28,NNE,20,0.0,3.0,61,0.00,,---,0.00,VWS V14.01,2013-10-08 17:26:00,
2013-10-08 13:31:00,67.5,51.8,30.28,WNW,288,3.0,6.0,57,0.00,,---,0.00,VWS V14.01,2013-10-08 17:31:00,
2013-10-08 13:36:00,67.3,51.6,30.28,SW,225,0.0,2.0,57,0.00,,---,0.00,VWS V14.01,2013-10-08 17:36:00,
2013-10-08 13:41:00,66.9,51.7,30.28,NNW,346,0.0,1.0,58,0.00,,---,0.00,VWS V14.01,2013-10-08 17:41:00,
2013-10-08 13:46:00,66.9,52.1,30.28,WNW,297,0.0,2.0,59,0.00,,---,0.00,VWS V14.01,2013-10-08 17:46:00,
2013-10-08 13:51:00,67.2,51.9,30.28,North,10,0.0,7.0,58,0.00,,---,0.00,VWS V14.01,2013-10-08 17:51:00,
2013-10-08 13:56:00,67.5,51.3,30.27,NNW,330,2.0,4.0,56,0.00,,---,0.00,VWS V14.01,2013-10-08 17:56:00,
2013-10-08 14:01:00,67.8,51.5,30.28,ENE,70,2.0,3.0,56,0.00,,---,0.00,VWS V14.01,2013-10-08 18:01:00,
2013-10-08 14:06:00,68.0,51.2,30.28,SE,128,0.0,2.0,55,0.00,,---,0.00,VWS V14.01,2013-10-08 18:06:00,
2013-10-08 14:11:00,68.2,52.4,30.28,NE,46,0.0,4.0,57,0.00,,---,0.00,VWS V14.01,2013-10-08 18:11:00,
2013-10-08 14:16:00,68.4,51.6,30.27,NNE,26,0.0,4.0,55,0.00,,---,0.00,VWS V14.01,2013-10-08 18:16:00,
2013-10-08 14:21:00,68.7,51.9,30.27,East,88,3.0,3.0,55,0.00,,---,0.00,VWS V14.01,2013-10-08 18:21:00,
2013-10-08 14:26:00,68.9,51.6,30.28,East,100,1.0,3.0,54,0.00,,---,0.00,VWS V14.01,2013-10-08 18:26:00,
2013-10-08 14:31:00,69.2,52.8,30.27,NE,34,0.0,1.0,56,0.00,,---,0.00,VWS V14.01,2013-10-08 18:31:00,
2013-10-08 14:36:00,69.5,51.6,30.27,ESE,111,2.0,3.0,53,0.00,,---,0.00,VWS V14.01,2013-10-08 18:36:00,
2013-10-08 14:41:00,69.7,51.8,30.27,East,97,0.0,4.0,53,0.00,,---,0.00,VWS V14.01,2013-10-08 18:41:00,
2013-10-08 14:46:00,69.9,51.5,30.27,WSW,242,0.0,2.0,52,0.00,,---,0.00,VWS V14.01,2013-10-08 18:46:00,
2013-10-08 14:51:00,69.9,50.4,30.27,WSW,242,0.0,3.0,50,0.00,,---,0.00,VWS V14.01,2013-10-08 18:51:00,
2013-10-08 14:56:00,69.9,52.5,30.27,East,95,2.0,4.0,54,0.00,,---,0.00,VWS V14.01,2013-10-08 18:56:00,
2013-10-08 15:01:00,70.0,52.6,30.26,North,350,5.0,5.0,54,0.00,,---,0.00,VWS V14.01,2013-10-08 19:01:00,
2013-10-08 15:06:00,70.3,52.9,30.26,NE,43,0.0,4.0,54,0.00,,---,0.00,VWS V14.01,2013-10-08 19:06:00,
2013-10-08 15:11:00,70.4,52.5,30.26,North,5,5.0,5.0,53,0.00,,---,0.00,VWS V14.01,2013-10-08 19:11:00,
2013-10-08 15:16:00,70.5,53.6,30.26,WNW,302,2.0,2.0,55,0.00,,---,0.00,VWS V14.01,2013-10-08 19:16:00,
2013-10-08 15:21:00,70.6,52.1,30.26,WNW,287,0.0,3.0,52,0.00,,---,0.00,VWS V14.01,2013-10-08 19:21:00,
2013-10-08 15:26:00,70.7,52.8,30.26,West,274,2.0,2.0,53,0.00,,---,0.00,VWS V14.01,2013-10-08 19:26:00,
2013-10-08 15:31:00,70.6,51.1,30.26,WNW,289,1.0,3.0,50,0.00,,---,0.00,VWS V14.01,2013-10-08 19:31:00,
2013-10-08 15:36:00,70.6,52.1,30.25,NNE,26,4.0,4.0,52,0.00,,---,0.00,VWS V14.01,2013-10-08 19:36:00,
2013-10-08 15:41:00,70.6,52.1,30.25,NNW,342,1.0,2.0,52,0.00,,---,0.00,VWS V14.01,2013-10-08 19:41:00,
2013-10-08 15:46:00,70.5,49.9,30.25,North,11,1.0,3.0,48,0.00,,---,0.00,VWS V14.01,2013-10-08 19:46:00,
2013-10-08 15:51:00,70.4,51.4,30.25,NW,321,1.0,1.0,51,0.00,,---,0.00,VWS V14.01,2013-10-08 19:51:00,
2013-10-08 15:56:00,70.3,51.9,30.25,ENE,58,0.0,2.0,52,0.00,,---,0.00,VWS V14.01,2013-10-08 19:56:00,
2013-10-08 16:01:00,70.1,51.7,30.25,NE,49,4.0,6.0,52,0.00,,---,0.00,VWS V14.01,2013-10-08 20:01:00,
2013-10-08 16:06:00,70.0,50.5,30.25,WNW,300,0.0,2.0,50,0.00,,---,0.00,VWS V14.01,2013-10-08 20:06:00,
2013-10-08 16:11:00,69.9,51.0,30.25,NNE,32,0.0,3.0,51,0.00,,---,0.00,VWS V14.01,2013-10-08 20:11:00,
2013-10-08 16:16:00,69.7,49.7,30.24,NW,311,0.0,7.0,49,0.00,,---,0.00,VWS V14.01,2013-10-08 20:16:00,
2013-10-08 16:21:00,69.2,49.8,30.24,NE,52,0.0,2.0,50,0.00,,---,0.00,VWS V14.01,2013-10-08 20:21:00,
2013-10-08 16:26:00,68.5,49.2,30.24,ESE,106,0.0,5.0,50,0.00,,---,0.00,VWS V14.01,2013-10-08 20:26:00,
2013-10-08 16:31:00,67.9,48.6,30.24,ESE,111,0.0,4.0,50,0.00,,---,0.00,VWS V14.01,2013-10-08 20:31:00,
2013-10-08 16:36:00,67.5,48.8,30.24,East,86,1.0,4.0,51,0.00,,---,0.00,VWS V14.01,2013-10-08 20:36:00,
2013-10-08 16:41:00,67.1,48.9,30.24,WNW,288,0.0,2.0,52,0.00,,---,0.00,VWS V14.01,2013-10-08 20:41:00,
2013-10-08 16:46:00,66.6,49.0,30.24,NE,46,0.0,2.0,53,0.00,,---,0.00,VWS V14.01,2013-10-08 20:46:00,
2013-10-08 16:51:00,66.2,48.6,30.24,ENE,74,0.0,1.0,53,0.00,,---,0.00,VWS V14.01,2013-10-08 20:51:00,
2013-10-08 16:56:00,65.7,48.6,30.25,ESE,123,0.0,3.0,54,0.00,,---,0.00,VWS V14.01,2013-10-08 20:56:00,
2013-10-08 17:01:00,65.2,48.2,30.24,East,94,0.0,3.0,54,0.00,,---,0.00,VWS V14.01,2013-10-08 21:01:00,
2013-10-08 17:06:00,64.8,49.2,30.25,East,94,0.0,0.0,57,0.00,,---,0.00,VWS V14.01,2013-10-08 21:06:00,
2013-10-08 17:11:00,64.5,48.5,30.24,NE,46,0.0,1.0,56,0.00,,---,0.00,VWS V14.01,2013-10-08 21:11:00,
2013-10-08 17:16:00,64.3,49.2,30.25,ESE,119,0.0,3.0,58,0.00,,---,0.00,VWS V14.01,2013-10-08 21:16:00,
2013-10-08 17:21:00,63.9,48.4,30.25,NE,54,0.0,3.0,57,0.00,,---,0.00,VWS V14.01,2013-10-08 21:21:00,
2013-10-08 17:26:00,63.6,48.6,30.25,NE,56,0.0,0.0,58,0.00,,---,0.00,VWS V14.01,2013-10-08 21:26:00,
2013-10-08 17:31:00,63.3,48.3,30.25,East,90,0.0,2.0,58,0.00,,---,0.00,VWS V14.01,2013-10-08 21:31:00,
2013-10-08 17:36:00,63.1,48.6,30.25,NNW,336,0.0,1.0,59,0.00,,---,0.00,VWS V14.01,2013-10-08 21:36:00,
2013-10-08 17:41:00,62.9,48.4,30.25,SE,125,0.0,1.0,59,0.00,,---,0.00,VWS V14.01,2013-10-08 21:41:00,
2013-10-08 17:46:00,62.8,48.7,30.25,SE,124,0.0,0.0,60,0.00,,---,0.00,VWS V14.01,2013-10-08 21:46:00,
2013-10-08 17:50:00,62.7,48.6,30.25,SE,124,0.0,0.0,60,0.00,,---,0.00,VWS V14.01,2013-10-08 21:50:00,
2013-10-08 17:56:00,62.5,48.9,30.25,SE,124,0.0,0.0,61,0.00,,---,0.00,VWS V14.01,2013-10-08 21:56:00,
2013-10-08 18:00:00,62.3,48.2,30.25,NE,51,0.0,0.0,60,0.00,,---,0.00,VWS V14.01,2013-10-08 22:00:00,
2013-10-08 18:05:00,62.1,48.5,30.25,NE,51,0.0,0.0,61,0.00,,---,0.00,VWS V14.01,2013-10-08 22:05:00,
2013-10-08 18:10:00,61.9,48.8,30.25,NE,51,0.0,0.0,62,0.00,,---,0.00,VWS V14.01,2013-10-08 22:10:00,
2013-10-08 18:15:00,61.7,49.0,30.25,NE,51,0.0,0.0,63,0.00,,---,0.00,VWS V14.01,2013-10-08 22:15:00,
2013-10-08 18:20:00,61.4,49.1,30.26,NE,51,0.0,0.0,64,0.00,,---,0.00,VWS V14.01,2013-10-08 22:20:00,
2013-10-08 18:25:00,61.0,49.6,30.25,NE,51,0.0,0.0,66,0.00,,---,0.00,VWS V14.01,2013-10-08 22:25:00,
2013-10-08 18:30:00,60.6,49.6,30.25,NE,51,0.0,0.0,67,0.00,,---,0.00,VWS V14.01,2013-10-08 22:30:00,
2013-10-08 18:35:00,60.1,49.1,30.25,NE,51,0.0,0.0,67,0.00,,---,0.00,VWS V14.01,2013-10-08 22:35:00,
2013-10-08 18:40:00,59.5,48.9,30.26,NE,51,0.0,0.0,68,0.00,,---,0.00,VWS V14.01,2013-10-08 22:40:00,
2013-10-08 18:45:00,58.9,49.2,30.26,NE,51,0.0,0.0,70,0.00,,---,0.00,VWS V14.01,2013-10-08 22:45:00,
2013-10-08 18:50:00,58.3,49.0,30.26,NE,51,0.0,0.0,71,0.00,,---,0.00,VWS V14.01,2013-10-08 22:50:00,
2013-10-08 18:55:00,57.7,48.8,30.26,NE,51,0.0,0.0,72,0.00,,---,0.00,VWS V14.01,2013-10-08 22:55:00,
2013-10-08 19:00:00,57.1,48.9,30.25,NE,51,0.0,0.0,74,0.00,,---,0.00,VWS V14.01,2013-10-08 23:00:00,
2013-10-08 19:05:00,56.6,48.8,30.25,NE,51,0.0,0.0,75,0.00,,---,0.00,VWS V14.01,2013-10-08 23:05:00,
2013-10-08 19:11:00,55.9,48.1,30.25,NE,51,0.0,0.0,75,0.00,,---,0.00,VWS V14.01,2013-10-08 23:11:00,
2013-10-08 19:16:00,55.4,48.0,30.25,NE,51,0.0,0.0,76,0.00,,---,0.00,VWS V14.01,2013-10-08 23:16:00,
2013-10-08 19:21:00,54.9,47.8,30.26,NE,51,0.0,0.0,77,0.01,,---,0.01,VWS V14.01,2013-10-08 23:21:00,
2013-10-08 19:26:00,54.4,47.7,30.26,NE,51,0.0,0.0,78,0.01,,---,0.01,VWS V14.01,2013-10-08 23:26:00,
2013-10-08 19:31:00,53.9,47.2,30.26,NE,51,0.0,0.0,78,0.01,,---,0.01,VWS V14.01,2013-10-08 23:31:00,
2013-10-08 19:36:00,53.5,47.2,30.25,NE,51,0.0,0.0,79,0.01,,---,0.01,VWS V14.01,2013-10-08 23:36:00,
2013-10-08 19:41:00,53.0,47.0,30.25,NE,51,0.0,0.0,80,0.01,,---,0.01,VWS V14.01,2013-10-08 23:41:00,
2013-10-08 19:46:00,52.5,46.5,30.25,NE,51,0.0,0.0,80,0.01,,---,0.01,VWS V14.01,2013-10-08 23:46:00,
2013-10-08 19:51:00,52.1,46.5,30.25,NE,51,0.0,0.0,81,0.01,,---,0.01,VWS V14.01,2013-10-08 23:51:00,
2013-10-08 19:56:00,51.6,46.3,30.25,NE,51,0.0,0.0,82,0.01,,---,0.01,VWS V14.01,2013-10-08 23:56:00,
2013-10-08 20:01:00,51.3,46.0,30.25,NE,51,0.0,0.0,82,0.01,,---,0.01,VWS V14.01,2013-10-09 00:01:00,
2013-10-08 20:06:00,50.9,45.9,30.26,NE,51,0.0,0.0,83,0.01,,---,0.01,VWS V14.01,2013-10-09 00:06:00,
2013-10-08 20:11:00,50.6,45.6,30.25,NE,51,0.0,0.0,83,0.01,,---,0.01,VWS V14.01,2013-10-09 00:11:00,
2013-10-08 20:16:00,50.3,45.7,30.26,NE,51,0.0,0.0,84,0.01,,---,0.01,VWS V14.01,2013-10-09 00:16:00,
2013-10-08 20:21:00,50.0,45.4,30.26,NE,51,0.0,0.0,84,0.01,,---,0.01,VWS V14.01,2013-10-09 00:21:00,
2013-10-08 20:26:00,49.7,45.1,30.26,NE,51,0.0,0.0,84,0.00,,---,0.01,VWS V14.01,2013-10-09 00:26:00,
2013-10-08 20:31:00,49.5,44.9,30.26,NE,51,0.0,0.0,84,0.00,,---,0.01,VWS V14.01,2013-10-09 00:31:00,
2013-10-08 20:36:00,49.2,44.9,30.26,NE,51,0.0,0.0,85,0.00,,---,0.01,VWS V14.01,2013-10-09 00:36:00,
2013-10-08 20:41:00,49.0,44.7,30.27,NE,51,0.0,0.0,85,0.00,,---,0.01,VWS V14.01,2013-10-09 00:41:00,
2013-10-08 20:46:00,48.8,44.5,30.27,NE,51,0.0,0.0,85,0.00,,---,0.01,VWS V14.01,2013-10-09 00:46:00,
2013-10-08 20:51:00,48.5,44.5,30.27,NE,51,0.0,0.0,86,0.00,,---,0.01,VWS V14.01,2013-10-09 00:51:00,
2013-10-08 20:56:00,48.3,44.3,30.27,NE,51,0.0,0.0,86,0.00,,---,0.01,VWS V14.01,2013-10-09 00:56:00,
2013-10-08 21:01:00,48.1,44.1,30.27,NE,51,0.0,0.0,86,0.00,,---,0.01,VWS V14.01,2013-10-09 01:01:00,
2013-10-08 21:06:00,47.9,43.9,30.27,NE,51,0.0,0.0,86,0.00,,---,0.01,VWS V14.01,2013-10-09 01:06:00,
2013-10-08 21:11:00,47.6,43.9,30.27,NE,51,0.0,0.0,87,0.00,,---,0.01,VWS V14.01,2013-10-09 01:11:00,
2013-10-08 21:16:00,47.4,43.7,30.27,NE,51,0.0,0.0,87,0.00,,---,0.01,VWS V14.01,2013-10-09 01:16:00,
2013-10-08 21:21:00,47.2,43.5,30.27,NE,51,0.0,0.0,87,0.00,,---,0.01,VWS V14.01,2013-10-09 01:21:00,
2013-10-08 21:26:00,47.0,43.3,30.27,NE,51,0.0,0.0,87,0.00,,---,0.01,VWS V14.01,2013-10-09 01:26:00,
2013-10-08 21:31:00,46.8,43.1,30.27,NE,51,0.0,0.0,87,0.00,,---,0.01,VWS V14.01,2013-10-09 01:31:00,
2013-10-08 21:36:00,46.7,43.3,30.28,NE,51,0.0,0.0,88,0.00,,---,0.01,VWS V14.01,2013-10-09 01:36:00,
2013-10-08 21:41:00,46.5,43.1,30.28,NE,51,0.0,0.0,88,0.00,,---,0.01,VWS V14.01,2013-10-09 01:41:00,
2013-10-08 21:46:00,46.3,43.0,30.28,NE,51,0.0,0.0,88,0.00,,---,0.01,VWS V14.01,2013-10-09 01:46:00,
2013-10-08 21:51:00,46.1,42.8,30.28,NE,51,0.0,0.0,88,0.00,,---,0.01,VWS V14.01,2013-10-09 01:51:00,
2013-10-08 21:56:00,46.0,42.7,30.28,NE,51,0.0,0.0,88,0.00,,---,0.01,VWS V14.01,2013-10-09 01:56:00,
2013-10-08 22:01:00,45.8,42.5,30.28,NE,51,0.0,0.0,88,0.00,,---,0.01,VWS V14.01,2013-10-09 02:01:00,
2013-10-08 22:06:00,45.7,42.4,30.29,NE,51,0.0,0.0,88,0.00,,---,0.01,VWS V14.01,2013-10-09 02:06:00,
2013-10-08 22:11:00,45.5,42.2,30.28,NE,51,0.0,0.0,88,0.00,,---,0.01,VWS V14.01,2013-10-09 02:11:00,
2013-10-08 22:16:00,45.4,42.1,30.29,NE,51,0.0,0.0,88,0.00,,---,0.01,VWS V14.01,2013-10-09 02:16:00,
2013-10-08 22:21:00,45.2,41.9,30.28,NE,51,0.0,0.0,88,0.00,,---,0.01,VWS V14.01,2013-10-09 02:21:00,
2013-10-08 22:26:00,45.1,41.8,30.28,NE,51,0.0,0.0,88,0.00,,---,0.01,VWS V14.01,2013-10-09 02:26:00,
2013-10-08 22:31:00,44.9,41.6,30.29,NE,51,0.0,0.0,88,0.00,,---,0.01,VWS V14.01,2013-10-09 02:31:00,
2013-10-08 22:36:00,44.7,41.4,30.29,NE,51,0.0,0.0,88,0.00,,---,0.01,VWS V14.01,2013-10-09 02:36:00,
2013-10-08 22:41:00,44.6,41.3,30.29,NE,51,0.0,0.0,88,0.00,,---,0.01,VWS V14.01,2013-10-09 02:41:00,
2013-10-08 22:46:00,44.4,41.4,30.29,NE,51,0.0,0.0,89,0.00,,---,0.01,VWS V14.01,2013-10-09 02:46:00,
2013-10-08 22:51:00,44.3,41.3,30.30,NE,51,0.0,0.0,89,0.00,,---,0.01,VWS V14.01,2013-10-09 02:51:00,
2013-10-08 22:56:00,44.2,41.2,30.30,NE,51,0.0,0.0,89,0.00,,---,0.01,VWS V14.01,2013-10-09 02:56:00,
2013-10-08 23:01:00,44.0,41.0,30.29,NE,51,0.0,0.0,89,0.00,,---,0.01,VWS V14.01,2013-10-09 03:01:00,
2013-10-08 23:06:00,43.9,40.9,30.29,NE,51,0.0,0.0,89,0.00,,---,0.01,VWS V14.01,2013-10-09 03:06:00,
2013-10-08 23:11:00,43.8,40.8,30.29,NE,51,0.0,0.0,89,0.00,,---,0.01,VWS V14.01,2013-10-09 03:11:00,
2013-10-08 23:16:00,43.7,40.7,30.29,NE,51,0.0,0.0,89,0.00,,---,0.01,VWS V14.01,2013-10-09 03:16:00,
2013-10-08 23:21:00,43.5,40.5,30.29,NE,51,0.0,0.0,89,0.00,,---,0.01,VWS V14.01,2013-10-09 03:21:00,
2013-10-08 23:26:00,43.4,40.4,30.29,NE,51,0.0,0.0,89,0.00,,---,0.01,VWS V14.01,2013-10-09 03:26:00,
2013-10-08 23:31:00,43.2,40.2,30.29,NE,51,0.0,0.0,89,0.00,,---,0.01,VWS V14.01,2013-10-09 03:31:00,
2013-10-08 23:36:00,43.1,40.1,30.29,NE,51,0.0,0.0,89,0.00,,---,0.01,VWS V14.01,2013-10-09 03:36:00,
2013-10-08 23:41:00,43.0,40.0,30.29,NE,51,0.0,0.0,89,0.00,,---,0.01,VWS V14.01,2013-10-09 03:41:00,
2013-10-08 23:46:00,42.8,40.1,30.29,NE,51,0.0,0.0,90,0.00,,---,0.01,VWS V14.01,2013-10-09 03:46:00,
2013-10-08 23:51:00,42.7,39.7,30.29,NE,51,0.0,0.0,89,0.00,,---,0.01,VWS V14.01,2013-10-09 03:51:00,
2013-10-08 23:56:00,42.6,39.6,30.29,NE,51,0.0,0.0,89,0.00,,---,0.01,VWS V14.01,2013-10-09 03:56:00,